Hornsby, Tennessee
Current Conditions -  °F | °C
As of 5:55 AM on Thursday 23 Oct 2014 (Local Time) from KCRX Reporting Station
Haze Haze  
Wind Chill: 37°   Ceiling: 500
Heat Index: 37°   Visibility: 0.75mi
Dew Point: 36°   Wind: 0mph
Humidity: 93%   Direction: NA
Pressure: 30.18"   Gusts: NA
Location:  35.23°N, 88.83°W
Report Text: KCRX 231055Z AUTO 00000KT 3/4SM BR VV005 03/02 A3018 RMK AO2
Loading
Personal Weather Stations






























Interactive Weather Map
Tropical Storm Tracking
New forecast layout! Learn more

10-Day Weather Forecast

Advertisements
Track Severe Weather on mobile